Time;durP1;ratioP1;P1;durP2;ratioP2;P2;SDS_P1;SDS_P2;PMS_P1;PMS_P2;Temp;Humidity;BMP_temperature;BMP_pressure;BME280_temperature;BME280_humidity;BME280_pressure;Samples;Min_cycle;Max_cycle;Signal;HPM_P1;HPM_P2
2023/09/03 00:00:57;;;;;;;7.17;4.13;;;;;;;19.64;64.36;96855.50;4986835;28;20256;-68
2023/09/03 00:03:22;;;;;;;7.03;4.30;;;;;;;19.69;63.94;96846.34;4986379;28;20173;-68
2023/09/03 00:05:54;;;;;;;7.40;4.90;;;;;;;19.55;64.82;96844.66;4988272;28;20193;-68
2023/09/03 00:08:21;;;;;;;7.00;3.50;;;;;;;19.52;65.05;96853.72;4987256;28;20272;-68
2023/09/03 00:10:53;;;;;;;5.07;3.73;;;;;;;19.53;64.87;96851.91;4987036;28;20487;-68
2023/09/03 00:13:19;;;;;;;5.90;3.67;;;;;;;19.59;64.70;96852.31;4986219;28;20412;-68
2023/09/03 00:15:45;;;;;;;8.87;4.10;;;;;;;19.46;65.06;96851.50;4986388;28;20621;-68
2023/09/03 00:18:11;;;;;;;4.60;3.83;;;;;;;19.45;64.97;96849.81;4986673;28;20434;-68
2023/09/03 00:20:37;;;;;;;6.87;4.30;;;;;;;19.50;65.05;96853.00;4986421;28;20176;-68
2023/09/03 00:23:03;;;;;;;7.30;4.40;;;;;;;19.57;64.68;96848.06;4987983;28;20893;-68
2023/09/03 00:25:34;;;;;;;4.70;3.93;;;;;;;19.51;64.83;96845.84;4989981;28;20432;-68
2023/09/03 00:28:00;;;;;;;8.50;4.30;;;;;;;19.45;64.97;96845.34;4989992;28;20177;-69
2023/09/03 00:30:25;;;;;;;6.00;4.80;;;;;;;19.40;65.23;96838.66;5003791;28;20687;-69
2023/09/03 00:32:50;;;;;;;7.40;4.40;;;;;;;19.47;64.90;96837.25;5009301;28;20208;-68
2023/09/03 00:35:16;;;;;;;6.67;4.37;;;;;;;19.43;64.87;96838.44;5009606;28;20212;-69
2023/09/03 00:37:41;;;;;;;5.70;3.90;;;;;;;19.37;65.10;96849.50;5009657;28;20180;-68
2023/09/03 00:40:07;;;;;;;4.47;3.30;;;;;;;19.31;65.19;96842.81;5009509;28;20999;-69
2023/09/03 00:42:34;;;;;;;4.67;3.80;;;;;;;19.30;65.27;96848.25;5009402;28;20194;-69
2023/09/03 00:45:00;;;;;;;8.00;4.43;;;;;;;19.20;65.43;96848.91;5007741;28;20196;-69
2023/09/03 00:47:25;;;;;;;4.53;4.07;;;;;;;19.25;65.38;96853.91;5009474;28;20411;-69
2023/09/03 00:49:51;;;;;;;9.43;4.60;;;;;;;19.18;65.75;96852.63;5009439;28;20584;-68
2023/09/03 00:52:19;;;;;;;7.17;3.97;;;;;;;19.16;65.70;96849.25;5009300;28;20238;-68
2023/09/03 00:54:44;;;;;;;6.90;4.43;;;;;;;19.24;65.44;96854.88;5008534;28;20707;-68
2023/09/03 00:57:10;;;;;;;5.80;4.07;;;;;;;19.32;65.42;96843.66;5008883;28;20455;-68
2023/09/03 00:59:35;;;;;;;8.10;3.47;;;;;;;19.45;64.74;96847.16;5008866;28;20259;-68
2023/09/03 01:02:01;;;;;;;9.43;4.03;;;;;;;19.45;65.02;96844.50;5009048;28;20259;-69
2023/09/03 01:04:27;;;;;;;6.83;3.73;;;;;;;19.24;65.22;96842.41;5008572;28;20691;-68
2023/09/03 01:06:53;;;;;;;7.37;3.73;;;;;;;19.16;65.93;96844.78;5008742;28;20176;-68
2023/09/03 01:09:19;;;;;;;7.27;3.80;;;;;;;19.06;66.38;96853.50;5008487;28;20180;-69
2023/09/03 01:12:05;;;;;;;5.53;3.47;;;;;;;18.98;66.69;96851.41;5008620;28;20415;-68
2023/09/03 01:14:49;;;;;;;9.90;4.60;;;;;;;19.10;66.24;96849.69;5008559;28;20443;-68
2023/09/03 01:17:35;;;;;;;9.80;4.10;;;;;;;19.11;66.32;96859.34;5009480;28;20903;-68
2023/09/03 01:20:41;;;;;;;4.50;3.70;;;;;;;19.07;66.05;96850.75;5004602;28;20450;-68
2023/09/03 01:23:34;;;;;;;6.23;3.93;;;;;;;18.97;66.16;96853.22;4988626;28;20451;-69
2023/09/03 01:26:31;;;;;;;4.33;3.50;;;;;;;18.87;66.88;96849.47;5008746;28;20935;-69
2023/09/03 01:28:58;;;;;;;7.10;4.17;;;;;;;18.96;66.37;96848.84;5006850;28;20423;-68
2023/09/03 01:31:24;;;;;;;5.90;4.00;;;;;;;18.99;66.06;96858.41;4989582;28;21144;-67
2023/09/03 01:33:50;;;;;;;8.23;4.30;;;;;;;19.03;65.79;96858.09;4988869;28;20424;-68
2023/09/03 01:36:17;;;;;;;4.83;3.77;;;;;;;18.97;66.13;96857.69;4988786;28;20677;-68
2023/09/03 01:38:43;;;;;;;4.87;3.60;;;;;;;19.00;65.92;96862.78;4988876;28;20932;-68
2023/09/03 01:41:08;;;;;;;6.20;4.20;;;;;;;19.02;65.80;96869.69;4988781;28;20415;-68
2023/09/03 01:43:34;;;;;;;5.13;3.87;;;;;;;19.02;65.80;96874.16;4988257;28;20695;-68
2023/09/03 01:46:08;;;;;;;5.37;3.60;;;;;;;18.93;66.06;96864.19;4988674;28;20197;-68
2023/09/03 01:49:04;;;;;;;6.03;3.53;;;;;;;18.94;65.84;96866.72;4988811;28;20999;-68
2023/09/03 01:51:51;;;;;;;4.00;3.60;;;;;;;18.95;66.06;96873.75;4988703;28;20527;-68
2023/09/03 01:54:27;;;;;;;5.73;5.13;;;;;;;18.76;66.68;96879.50;4988223;28;20952;-68
2023/09/03 01:57:07;;;;;;;12.60;3.73;;;;;;;18.79;66.54;96887.25;4988507;28;21094;-68
2023/09/03 01:59:41;;;;;;;6.17;4.17;;;;;;;18.85;66.48;96877.13;4988307;28;20424;-68
2023/09/03 02:02:07;;;;;;;4.83;3.43;;;;;;;18.80;66.56;96880.13;4988249;28;20412;-68
2023/09/03 02:04:32;;;;;;;7.80;3.70;;;;;;;18.87;66.04;96885.88;4987866;28;20810;-68
2023/09/03 02:06:58;;;;;;;6.20;4.30;;;;;;;18.93;65.97;96886.28;4988314;28;20183;-67
2023/09/03 02:09:23;;;;;;;6.40;4.70;;;;;;;18.86;66.05;96884.19;4988139;28;20551;-67
2023/09/03 02:11:48;;;;;;;6.10;3.53;;;;;;;18.93;65.83;96880.13;4988143;28;20180;-69
2023/09/03 02:14:14;;;;;;;9.33;4.27;;;;;;;18.93;65.79;96882.78;4987842;28;20169;-69
2023/09/03 02:16:39;;;;;;;7.57;4.20;;;;;;;18.85;66.01;96886.00;4988335;28;20612;-68
2023/09/03 02:19:04;;;;;;;6.00;4.00;;;;;;;18.82;66.28;96888.84;4988048;28;20753;-68
2023/09/03 02:21:30;;;;;;;5.87;3.97;;;;;;;18.76;66.45;96889.25;4987634;28;20187;-68
2023/09/03 02:23:55;;;;;;;5.90;3.73;;;;;;;18.80;66.32;96891.63;4987567;28;20180;-68
2023/09/03 02:26:21;;;;;;;5.50;3.50;;;;;;;18.80;66.28;96891.63;4988302;28;20252;-68
2023/09/03 02:28:47;;;;;;;5.17;3.37;;;;;;;18.86;66.11;96895.66;4988863;28;20612;-69
2023/09/03 02:31:12;;;;;;;6.97;3.50;;;;;;;18.89;65.91;96902.56;5007457;28;20255;-68
2023/09/03 02:33:38;;;;;;;5.90;3.87;;;;;;;18.78;66.29;96903.28;5006851;28;21006;-67
2023/09/03 02:36:03;;;;;;;7.00;4.20;;;;;;;18.86;66.09;96900.13;5006993;28;20257;-67
2023/09/03 02:38:29;;;;;;;6.53;3.63;;;;;;;18.87;66.13;96913.31;5007186;28;20230;-68
2023/09/03 02:40:54;;;;;;;7.50;3.97;;;;;;;18.78;66.34;96911.28;5007076;28;20720;-69
2023/09/03 02:43:19;;;;;;;4.43;3.33;;;;;;;18.76;66.23;96911.41;5007359;28;20180;-67
2023/09/03 02:45:45;;;;;;;7.03;3.57;;;;;;;18.76;66.39;96911.41;5007176;28;20192;-68
2023/09/03 02:48:10;;;;;;;4.73;3.30;;;;;;;18.73;66.31;96916.91;5007840;28;20172;-69
2023/09/03 02:50:36;;;;;;;10.43;4.33;;;;;;;18.76;66.14;96916.72;5008029;28;20548;-68
2023/09/03 02:53:06;;;;;;;7.30;4.00;;;;;;;18.72;66.18;96920.50;5007699;28;20247;-68
2023/09/03 02:55:32;;;;;;;6.27;4.00;;;;;;;18.62;66.45;96914.13;5008193;28;20490;-69
2023/09/03 02:57:57;;;;;;;7.50;3.90;;;;;;;18.61;66.44;96920.38;5014469;28;20491;-68
2023/09/03 03:00:23;;;;;;;7.20;4.27;;;;;;;18.58;66.42;96915.28;5017433;28;20168;-68
2023/09/03 03:02:49;;;;;;;4.73;3.40;;;;;;;18.61;66.21;96915.94;5016478;28;20248;-68
2023/09/03 03:05:15;;;;;;;8.03;3.50;;;;;;;18.57;66.33;96910.94;5016220;28;20196;-68
2023/09/03 03:07:44;;;;;;;5.60;3.70;;;;;;;18.58;66.17;96909.97;5011751;28;20399;-68
2023/09/03 03:10:10;;;;;;;5.97;3.03;;;;;;;18.54;66.20;96919.09;5007298;28;20187;-68
2023/09/03 03:12:36;;;;;;;3.73;3.30;;;;;;;18.51;66.38;96912.19;5007227;28;20411;-68
2023/09/03 03:15:01;;;;;;;6.30;3.47;;;;;;;18.53;66.42;96920.06;5006629;28;20505;-68
2023/09/03 03:17:27;;;;;;;5.40;3.63;;;;;;;18.55;66.26;96918.16;5007003;28;20180;-68
2023/09/03 03:19:52;;;;;;;4.80;3.10;;;;;;;18.51;66.27;96925.47;5006896;28;20175;-68
2023/09/03 03:22:18;;;;;;;10.13;4.20;;;;;;;18.56;66.19;96918.03;5006824;28;20176;-69
2023/09/03 03:24:43;;;;;;;7.83;4.13;;;;;;;18.55;66.30;96920.81;5006389;28;20240;-68
2023/09/03 03:27:09;;;;;;;8.73;3.60;;;;;;;18.46;66.49;96921.41;5006859;28;20179;-69
2023/09/03 03:29:35;;;;;;;11.77;3.90;;;;;;;18.46;66.86;96932.91;4998378;28;20733;-69
2023/09/03 03:32:00;;;;;;;5.80;3.07;;;;;;;18.52;66.44;96928.97;4987790;28;20230;-68
2023/09/03 03:34:26;;;;;;;4.27;3.23;;;;;;;18.48;66.53;96931.00;4986968;28;20192;-68
2023/09/03 03:36:52;;;;;;;6.30;4.27;;;;;;;18.45;66.55;96925.91;4987363;28;20196;-69
2023/09/03 03:39:19;;;;;;;4.93;3.00;;;;;;;18.44;66.99;96918.84;4986889;28;20196;-68
2023/09/03 03:41:45;;;;;;;10.57;4.00;;;;;;;18.44;66.62;96915.34;4986571;28;20983;-67
2023/09/03 03:44:10;;;;;;;7.63;3.73;;;;;;;18.44;66.67;96910.03;4986168;28;20408;-68
2023/09/03 03:46:36;;;;;;;7.37;3.60;;;;;;;18.50;66.36;96922.94;4986644;28;20169;-68
2023/09/03 03:49:01;;;;;;;7.80;3.13;;;;;;;18.49;66.38;96926.53;4986603;28;20169;-67
2023/09/03 03:51:27;;;;;;;4.13;3.67;;;;;;;18.43;66.47;96924.28;4986596;28;20199;-69
2023/09/03 03:53:52;;;;;;;4.67;3.70;;;;;;;18.30;66.98;96918.94;4986308;28;20272;-68
2023/09/03 03:56:17;;;;;;;6.23;3.83;;;;;;;18.34;66.72;96915.13;4986556;28;20212;-68
2023/09/03 03:58:44;;;;;;;4.17;3.00;;;;;;;18.20;67.19;96924.00;4989458;28;20207;-69
2023/09/03 04:01:18;;;;;;;4.20;3.30;;;;;;;18.28;66.82;96923.50;4990488;28;20216;-69
2023/09/03 04:03:48;;;;;;;4.53;3.10;;;;;;;18.14;67.30;96935.91;4990060;28;20419;-68
2023/09/03 04:06:14;;;;;;;4.70;3.83;;;;;;;18.05;67.49;96947.13;4990476;28;20436;-68
2023/09/03 04:08:39;;;;;;;5.10;3.50;;;;;;;18.06;67.45;96945.31;4990358;28;20435;-68
2023/09/03 04:11:09;;;;;;;5.50;3.73;;;;;;;18.12;67.05;96934.31;4990590;28;20773;-68
2023/09/03 04:13:36;;;;;;;5.73;3.50;;;;;;;18.11;67.16;96940.56;4990000;28;20172;-68
2023/09/03 04:16:07;;;;;;;7.70;3.67;;;;;;;18.11;67.05;96940.56;4989957;28;20474;-69
2023/09/03 04:18:33;;;;;;;6.27;3.37;;;;;;;18.22;66.66;96931.88;4990039;28;20416;-69
2023/09/03 04:20:58;;;;;;;5.53;3.93;;;;;;;18.16;66.85;96927.81;4989735;28;20529;-69
2023/09/03 04:23:24;;;;;;;6.27;3.50;;;;;;;18.08;67.11;96936.28;4989611;28;20414;-69
2023/09/03 04:25:51;;;;;;;11.80;3.90;;;;;;;18.05;67.38;96939.16;4990198;28;20282;-69
2023/09/03 04:28:17;;;;;;;7.37;3.63;;;;;;;18.07;67.55;96949.66;4990131;28;20804;-69
2023/09/03 04:30:43;;;;;;;3.53;3.23;;;;;;;18.15;67.19;96952.69;5006244;28;20449;-70
2023/09/03 04:33:08;;;;;;;6.60;4.10;;;;;;;18.06;67.10;96963.91;5009515;28;20447;-69
2023/09/03 04:35:35;;;;;;;9.37;3.57;;;;;;;18.05;67.23;96967.50;5009807;28;20669;-69
2023/09/03 04:38:01;;;;;;;28.73;8.20;;;;;;;18.03;67.46;96969.44;5009819;28;20679;-69
2023/09/03 04:40:26;;;;;;;10.33;3.70;;;;;;;18.01;67.61;96971.31;5009788;28;20494;-70
2023/09/03 04:42:52;;;;;;;7.60;3.70;;;;;;;18.01;67.65;96969.50;5009287;28;20259;-69
2023/09/03 04:45:17;;;;;;;6.13;3.47;;;;;;;18.06;67.16;96971.88;5009440;28;20193;-68
2023/09/03 04:47:44;;;;;;;5.20;3.33;;;;;;;18.03;67.46;96972.09;5009714;28;21009;-69
2023/09/03 04:50:10;;;;;;;8.30;3.77;;;;;;;18.04;67.49;96982.59;5009584;28;20807;-68
2023/09/03 04:52:36;;;;;;;8.43;3.83;;;;;;;18.00;67.65;96975.78;5009328;28;20407;-69
2023/09/03 04:55:01;;;;;;;6.50;3.77;;;;;;;18.08;67.02;96978.78;5008650;28;20283;-69
2023/09/03 04:57:27;;;;;;;8.30;3.70;;;;;;;18.05;67.42;96983.44;5008974;28;20976;-69
2023/09/03 04:59:53;;;;;;;9.63;4.10;;;;;;;18.05;67.30;96984.31;5008681;28;20187;-69
2023/09/03 05:02:18;;;;;;;9.20;3.33;;;;;;;18.02;67.03;96987.13;5008634;28;20423;-68
2023/09/03 05:04:43;;;;;;;8.43;4.00;;;;;;;17.92;67.62;96992.19;5008237;28;20222;-68
2023/09/03 05:07:09;;;;;;;7.93;3.77;;;;;;;18.05;67.25;96994.06;5008635;28;20208;-69
2023/09/03 05:09:34;;;;;;;6.70;3.60;;;;;;;18.02;67.61;97004.88;5008773;28;20184;-68
2023/09/03 05:12:00;;;;;;;4.77;3.20;;;;;;;17.98;67.77;97002.44;5009104;28;20168;-69
2023/09/03 05:14:25;;;;;;;10.57;3.93;;;;;;;18.13;67.30;97002.41;5008526;28;20299;-69
2023/09/03 05:16:50;;;;;;;12.17;5.80;;;;;;;18.14;67.38;96999.66;5008596;28;20200;-69
2023/09/03 05:19:16;;;;;;;11.90;3.87;;;;;;;18.13;67.20;97000.59;5008609;28;20216;-69
2023/09/03 05:21:42;;;;;;;5.27;3.50;;;;;;;18.19;67.12;97002.00;5008587;28;20211;-68
2023/09/03 05:24:08;;;;;;;11.87;3.70;;;;;;;18.09;67.36;97007.03;5008191;28;20176;-68
2023/09/03 05:26:33;;;;;;;23.63;4.47;;;;;;;18.27;66.80;97004.16;5008589;28;20548;-68
2023/09/03 05:28:59;;;;;;;6.33;3.87;;;;;;;18.25;66.96;97001.59;5006188;28;20692;-69
2023/09/03 05:31:24;;;;;;;4.90;3.70;;;;;;;18.19;67.25;97002.00;4989013;28;20179;-69
2023/09/03 05:33:50;;;;;;;9.60;3.77;;;;;;;18.16;67.40;97005.69;4988422;28;20177;-69
2023/09/03 05:36:15;;;;;;;6.33;3.03;;;;;;;18.21;67.07;97013.38;4988639;28;20240;-66
2023/09/03 05:38:42;;;;;;;6.40;3.20;;;;;;;18.50;67.32;97003.50;4989038;28;20189;-65
2023/09/03 05:41:09;;;;;;;7.00;3.90;;;;;;;18.41;66.68;97012.94;4988774;28;20180;-66
2023/09/03 05:43:35;;;;;;;9.70;4.17;;;;;;;18.41;66.98;97017.41;4988129;28;20447;-67
2023/09/03 05:46:00;;;;;;;4.40;3.63;;;;;;;18.32;66.83;97024.16;4988485;28;20461;-66
2023/09/03 05:48:25;;;;;;;4.93;3.67;;;;;;;18.50;66.35;97037.22;4987289;28;20177;-67
2023/09/03 05:51:04;;;;;;;8.43;3.47;;;;;;;18.60;66.05;97039.16;4988821;28;20235;-66
2023/09/03 05:53:31;;;;;;;7.50;3.13;;;;;;;18.65;66.08;97038.84;4988449;28;20238;-66
2023/09/03 05:56:07;;;;;;;8.23;4.77;;;;;;;18.97;64.83;97031.41;4988336;28;20542;-66
2023/09/03 05:58:32;;;;;;;14.37;3.80;;;;;;;19.36;63.58;97034.94;5001052;28;21143;-66
2023/09/03 06:00:58;;;;;;;4.83;3.40;;;;;;;19.54;63.10;97040.81;5008178;28;20506;-66
2023/09/03 06:03:24;;;;;;;6.13;4.10;;;;;;;19.42;63.23;97029.22;5007823;28;20184;-66
2023/09/03 06:05:49;;;;;;;6.00;3.33;;;;;;;19.51;62.94;97035.69;5007814;28;20230;-66
2023/09/03 06:08:14;;;;;;;4.73;3.40;;;;;;;19.95;61.62;97028.22;5007754;28;20592;-66
2023/09/03 06:10:41;;;;;;;7.40;3.07;;;;;;;20.30;60.76;97023.84;5005818;28;20172;-67
2023/09/03 06:13:06;;;;;;;6.07;3.70;;;;;;;20.62;59.46;97028.69;4992080;28;20203;-66
2023/09/03 06:15:32;;;;;;;10.13;3.83;;;;;;;20.72;59.25;97024.34;4994851;28;20876;-66
2023/09/03 06:17:59;;;;;;;8.23;3.70;;;;;;;20.78;58.83;97017.69;5003079;28;20552;-66
2023/09/03 06:20:25;;;;;;;5.60;3.77;;;;;;;20.84;58.57;97027.06;5005454;28;20196;-66
2023/09/03 06:22:50;;;;;;;7.70;3.70;;;;;;;20.77;59.24;97023.16;5003800;28;20440;-66
2023/09/03 06:25:16;;;;;;;8.97;2.90;;;;;;;20.76;59.24;97022.28;4987673;28;20205;-66
2023/09/03 06:27:41;;;;;;;12.47;4.53;;;;;;;20.84;58.88;97027.91;5002144;28;20267;-66
2023/09/03 06:30:07;;;;;;;6.00;3.20;;;;;;;20.85;58.81;97026.09;5005452;28;20195;-66
2023/09/03 06:32:32;;;;;;;5.60;2.80;;;;;;;21.22;57.88;97026.81;5004829;28;20215;-66
2023/09/03 06:34:58;;;;;;;8.30;3.40;;;;;;;21.63;56.48;97036.13;4998608;28;20212;-66
2023/09/03 06:37:23;;;;;;;4.30;3.17;;;;;;;21.76;56.06;97025.34;5005791;28;20248;-67
2023/09/03 06:39:48;;;;;;;3.80;3.30;;;;;;;21.96;55.49;97027.25;5006417;28;20180;-66
2023/09/03 06:42:14;;;;;;;7.87;3.30;;;;;;;22.25;54.66;97032.09;5006044;28;20180;-65
2023/09/03 06:44:39;;;;;;;4.60;2.93;;;;;;;22.43;53.99;97032.44;4994868;28;20203;-66
2023/09/03 06:47:04;;;;;;;6.57;3.57;;;;;;;22.47;53.82;97038.41;4992727;28;20634;-66
2023/09/03 06:49:30;;;;;;;5.93;3.10;;;;;;;22.62;53.43;97042.47;5001316;28;20619;-66
2023/09/03 06:51:55;;;;;;;5.00;3.20;;;;;;;22.98;52.58;97051.97;4999124;28;20180;-66
2023/09/03 06:54:20;;;;;;;3.90;3.50;;;;;;;23.16;52.06;97057.63;4995640;28;20257;-66
2023/09/03 06:56:46;;;;;;;4.57;3.40;;;;;;;23.24;51.83;97067.69;4996899;28;20207;-66
2023/09/03 06:59:11;;;;;;;4.77;2.93;;;;;;;22.98;52.67;97068.03;4999822;28;20209;-66
2023/09/03 07:01:36;;;;;;;3.77;3.23;;;;;;;22.66;54.07;97072.53;4999483;28;20220;-65
2023/09/03 07:04:02;;;;;;;4.57;3.17;;;;;;;22.18;55.30;97071.84;5005718;28;20204;-66
2023/09/03 07:06:27;;;;;;;4.13;2.80;;;;;;;22.48;54.86;97077.53;5004285;28;20191;-66
2023/09/03 07:08:53;;;;;;;4.47;3.40;;;;;;;22.57;54.87;97079.47;5006090;28;20186;-66
2023/09/03 07:11:19;;;;;;;5.10;3.03;;;;;;;22.53;55.05;97065.47;5008088;28;20654;-67
2023/09/03 07:13:44;;;;;;;4.80;2.93;;;;;;;22.57;54.82;97074.97;5016914;28;20478;-67
2023/09/03 07:16:10;;;;;;;8.27;3.73;;;;;;;22.70;54.69;97076.63;5013411;28;20277;-66
2023/09/03 07:18:35;;;;;;;13.60;4.40;;;;;;;22.85;54.28;97083.41;5005665;28;20188;-66
2023/09/03 07:21:05;;;;;;;7.37;3.73;;;;;;;23.00;54.27;97087.50;5003390;28;20192;-66
2023/09/03 07:23:30;;;;;;;9.30;4.10;;;;;;;22.61;55.56;97092.47;5002064;28;20192;-66
2023/09/03 07:26:08;;;;;;;4.60;3.10;;;;;;;22.74;55.56;97094.97;4997624;28;20504;-66
2023/09/03 07:28:33;;;;;;;5.10;3.50;;;;;;;22.72;55.65;97102.28;5005049;28;20187;-66
2023/09/03 07:30:59;;;;;;;7.43;3.83;;;;;;;22.75;55.48;97103.88;4987905;28;20495;-66
2023/09/03 07:33:25;;;;;;;7.93;3.80;;;;;;;22.58;56.34;97108.78;5000601;28;20266;-66
2023/09/03 07:35:50;;;;;;;8.73;3.90;;;;;;;22.44;56.62;97109.06;5009526;28;20620;-66
2023/09/03 07:38:15;;;;;;;12.07;4.70;;;;;;;22.46;56.50;97114.25;5006260;28;20196;-66
2023/09/03 07:40:41;;;;;;;5.80;3.77;;;;;;;22.61;56.13;97113.88;5008947;28;20234;-66
2023/09/03 07:43:06;;;;;;;9.40;4.20;;;;;;;23.00;54.90;97110.75;4996261;28;20240;-66
2023/09/03 07:45:31;;;;;;;4.60;3.60;;;;;;;23.19;54.47;97105.56;4997750;28;20610;-65
2023/09/03 07:47:57;;;;;;;4.60;3.40;;;;;;;23.41;53.68;97112.66;5003034;28;20808;-67
2023/09/03 07:50:23;;;;;;;9.30;3.50;;;;;;;23.24;54.60;97114.09;5007248;28;20176;-66
2023/09/03 07:52:48;;;;;;;7.03;3.27;;;;;;;22.41;56.44;97120.81;5006321;28;20552;-66
2023/09/03 07:55:13;;;;;;;6.10;3.27;;;;;;;23.00;54.99;97122.31;5010095;28;20207;-67
2023/09/03 07:57:39;;;;;;;5.70;3.50;;;;;;;23.31;54.03;97126.94;5008108;28;20191;-66
2023/09/03 08:00:05;;;;;;;4.67;2.80;;;;;;;23.17;54.48;97125.41;5010131;28;20192;-66
2023/09/03 08:02:30;;;;;;;5.23;3.77;;;;;;;23.10;54.90;97119.72;5010292;28;20561;-66
2023/09/03 08:04:56;;;;;;;8.10;3.40;;;;;;;23.15;54.81;97138.06;5010341;28;20541;-66
2023/09/03 08:07:21;;;;;;;3.53;3.07;;;;;;;22.94;55.45;97128.16;5011095;28;20191;-66
2023/09/03 08:09:46;;;;;;;3.60;2.90;;;;;;;22.81;55.86;97128.28;5010339;28;20184;-66
2023/09/03 08:12:12;;;;;;;5.00;3.00;;;;;;;22.86;55.92;97125.22;5010848;28;20265;-66
2023/09/03 08:14:38;;;;;;;3.63;2.80;;;;;;;23.03;55.49;97126.56;5010760;28;20227;-66
2023/09/03 08:17:04;;;;;;;5.10;3.27;;;;;;;23.25;54.83;97137.19;5012575;28;20657;-66
2023/09/03 08:19:30;;;;;;;5.30;3.07;;;;;;;23.54;53.90;97135.72;5022310;28;20419;-66
2023/09/03 08:21:55;;;;;;;4.87;2.73;;;;;;;23.51;54.16;97136.84;5026238;28;20167;-66
2023/09/03 08:24:21;;;;;;;3.70;2.80;;;;;;;23.73;53.61;97141.22;5042153;28;20225;-67
2023/09/03 08:26:48;;;;;;;4.63;3.00;;;;;;;23.46;53.74;97123.81;5009148;28;20195;-66
2023/09/03 08:29:13;;;;;;;4.07;2.60;;;;;;;24.24;52.04;97120.78;4994403;28;20184;-68
2023/09/03 08:31:39;;;;;;;10.53;2.40;;;;;;;24.29;52.01;97129.28;4990001;28;20501;-66
2023/09/03 08:34:04;;;;;;;8.83;3.43;;;;;;;24.58;49.81;97132.09;4970943;28;20320;-67
2023/09/03 08:36:29;;;;;;;6.63;3.50;;;;;;;23.78;52.51;97130.97;4963880;28;20209;-66
2023/09/03 08:38:55;;;;;;;9.50;2.80;;;;;;;23.79;52.31;97132.69;4968839;28;20277;-66
2023/09/03 08:41:23;;;;;;;7.27;2.30;;;;;;;24.29;51.43;97123.91;4969452;28;20189;-67
2023/09/03 08:43:53;;;;;;;9.20;2.67;;;;;;;24.81;49.90;97126.50;4963388;28;20193;-66
2023/09/03 08:46:23;;;;;;;3.17;2.50;;;;;;;24.47;50.90;97121.44;4965083;28;20461;-66
2023/09/03 08:48:49;;;;;;;10.43;3.50;;;;;;;24.90;49.70;97123.00;4968238;28;20444;-66
2023/09/03 08:51:15;;;;;;;4.10;2.80;;;;;;;24.48;50.99;97123.16;4968059;28;20469;-66
2023/09/03 08:53:42;;;;;;;4.10;3.00;;;;;;;23.86;52.46;97123.13;4966070;28;20527;-66
2023/09/03 08:56:08;;;;;;;2.73;2.47;;;;;;;23.83;52.26;97128.75;4965009;28;20210;-65
2023/09/03 08:58:34;;;;;;;3.80;2.40;;;;;;;24.41;51.76;97124.66;4962483;28;20452;-66
2023/09/03 09:00:59;;;;;;;5.17;3.27;;;;;;;24.62;50.85;97136.19;4968156;28;20190;-66
2023/09/03 09:03:28;;;;;;;4.70;3.13;;;;;;;25.44;49.19;97127.00;4968957;28;20216;-66
2023/09/03 09:05:55;;;;;;;3.80;2.90;;;;;;;25.21;49.15;97139.03;4962518;28;20205;-66
2023/09/03 09:08:24;;;;;;;5.47;3.37;;;;;;;25.11;49.76;97137.16;4968257;28;20468;-65
2023/09/03 09:10:51;;;;;;;7.83;2.73;;;;;;;24.82;50.57;97136.25;4965001;28;20436;-67
2023/09/03 09:13:24;;;;;;;4.27;2.47;;;;;;;24.76;49.55;97136.78;4968312;28;20436;-66
2023/09/03 09:15:49;;;;;;;3.17;2.50;;;;;;;24.97;49.92;97150.09;4960234;28;21035;-66
2023/09/03 09:18:15;;;;;;;5.47;3.17;;;;;;;24.99;49.29;97153.50;4965362;28;20445;-66
2023/09/03 09:20:41;;;;;;;4.00;2.10;;;;;;;24.40;49.54;97149.78;4966759;28;20189;-67
2023/09/03 09:23:07;;;;;;;3.60;2.37;;;;;;;24.70;49.43;97151.59;4968204;28;20271;-67
2023/09/03 09:25:34;;;;;;;2.83;2.20;;;;;;;24.91;48.66;97146.16;4967361;28;20205;-67
2023/09/03 09:28:10;;;;;;;3.47;2.83;;;;;;;25.34;47.50;97153.00;4967387;28;20443;-66
2023/09/03 09:30:35;;;;;;;2.83;2.33;;;;;;;25.55;47.51;97151.03;4967335;28;20926;-66
2023/09/03 09:33:05;;;;;;;3.43;2.77;;;;;;;24.99;48.89;97150.81;4964771;28;20455;-67
2023/09/03 09:35:31;;;;;;;4.53;2.83;;;;;;;25.17;48.89;97151.84;4965985;28;21154;-66
2023/09/03 09:38:05;;;;;;;4.73;2.67;;;;;;;24.82;48.69;97155.88;4968854;28;20445;-67
2023/09/03 09:40:30;;;;;;;10.90;2.83;;;;;;;24.48;50.48;97150.84;4969045;28;20196;-66
2023/09/03 09:42:57;;;;;;;2.73;2.47;;;;;;;24.83;49.70;97162.13;4955538;28;20441;-66
2023/09/03 09:45:23;;;;;;;7.37;3.03;;;;;;;25.25;48.91;97162.78;4966380;28;20651;-67
2023/09/03 09:48:09;;;;;;;2.47;2.00;;;;;;;25.89;47.71;97158.69;4968236;28;20469;-67
2023/09/03 09:50:39;;;;;;;3.80;3.07;;;;;;;25.09;48.53;97168.66;4967622;28;20670;-67
2023/09/03 09:53:19;;;;;;;3.97;2.40;;;;;;;24.95;49.40;97157.47;4962608;28;20441;-67
2023/09/03 09:55:45;;;;;;;2.80;2.43;;;;;;;24.65;50.36;97169.97;4960152;28;20480;-67
2023/09/03 09:58:12;;;;;;;3.77;2.60;;;;;;;24.30;51.35;97173.88;4962408;28;20440;-66
2023/09/03 10:00:41;;;;;;;5.80;2.53;;;;;;;24.73;50.10;97170.13;4970537;28;20476;-67
2023/09/03 10:03:15;;;;;;;3.00;2.17;;;;;;;24.78;49.97;97173.25;4959315;28;20575;-67
2023/09/03 10:05:50;;;;;;;3.53;2.03;;;;;;;24.27;51.47;97168.78;4964028;28;20935;-67
2023/09/03 10:08:16;;;;;;;6.07;2.20;;;;;;;24.41;50.80;97154.16;4963772;28;20452;-68
2023/09/03 10:10:43;;;;;;;2.97;2.47;;;;;;;24.59;50.10;97152.59;4958098;28;20446;-67
2023/09/03 10:13:09;;;;;;;2.13;1.93;;;;;;;24.61;50.50;97160.47;4962617;28;20439;-67
2023/09/03 10:15:35;;;;;;;3.03;2.10;;;;;;;24.19;51.35;97160.53;4967533;28;20469;-68
2023/09/03 10:18:02;;;;;;;4.33;2.23;;;;;;;24.04;49.81;97173.47;4966336;28;20193;-68
2023/09/03 10:20:28;;;;;;;2.17;1.90;;;;;;;24.55;50.76;97167.25;4995798;28;20437;-67
2023/09/03 10:22:56;;;;;;;4.33;2.50;;;;;;;24.84;50.13;97161.97;4964645;28;20445;-67
2023/09/03 10:25:25;;;;;;;2.77;2.27;;;;;;;24.87;49.38;97172.41;4961743;28;20469;-67
2023/09/03 10:27:55;;;;;;;3.47;2.13;;;;;;;24.75;50.13;97170.81;4963992;28;20532;-68
2023/09/03 10:30:25;;;;;;;2.13;1.90;;;;;;;24.65;50.37;97173.50;4967375;28;20972;-68
2023/09/03 10:32:52;;;;;;;2.90;2.37;;;;;;;24.35;50.42;97171.63;4962525;28;20448;-67
2023/09/03 10:35:18;;;;;;;2.73;2.33;;;;;;;24.45;49.83;97169.00;4967096;28;21119;-69
2023/09/03 10:37:44;;;;;;;3.20;2.20;;;;;;;24.79;49.49;97158.84;4960407;28;20503;-68
2023/09/03 10:40:20;;;;;;;2.80;2.27;;;;;;;24.83;49.07;97168.31;4997678;28;20181;-68
2023/09/03 10:42:54;;;;;;;8.80;2.10;;;;;;;25.06;48.84;97163.56;4966816;28;20436;-69
2023/09/03 10:45:20;;;;;;;3.43;2.47;;;;;;;24.88;48.12;97160.69;4965566;28;20452;-68
2023/09/03 10:48:02;;;;;;;3.70;2.33;;;;;;;25.28;48.14;97148.22;4959826;28;20523;-68
2023/09/03 10:50:43;;;;;;;2.90;1.70;;;;;;;25.23;47.56;97155.81;4959657;28;20433;-67
2023/09/03 10:53:09;;;;;;;2.43;1.90;;;;;;;25.37;45.37;97152.75;4964411;28;20432;-68
2023/09/03 10:55:35;;;;;;;10.43;2.13;;;;;;;25.59;44.25;97146.22;4967120;28;20546;-68
2023/09/03 10:58:23;;;;;;;5.73;2.20;;;;;;;26.02;42.73;97149.44;4964659;28;20445;-68
2023/09/03 11:01:33;;;;;;;4.33;2.10;;;;;;;25.50;45.26;97150.59;4961581;28;20891;-66
2023/09/03 11:04:00;;;;;;;5.30;2.10;;;;;;;25.81;44.62;97139.69;4963913;28;20744;-69
2023/09/03 11:06:28;;;;;;;4.10;2.00;;;;;;;25.96;43.84;97135.59;4974881;28;20439;-68
2023/09/03 11:09:06;;;;;;;3.63;1.80;;;;;;;26.20;44.27;97134.25;4985571;28;21001;-69
2023/09/03 11:11:36;;;;;;;18.70;3.57;;;;;;;25.86;44.41;97137.44;4985086;28;20400;-66
2023/09/03 11:14:03;;;;;;;2.27;1.63;;;;;;;25.44;44.62;97137.75;4963891;28;20471;-66
2023/09/03 11:16:33;;;;;;;2.90;1.90;;;;;;;25.11;44.93;97145.19;4957075;28;20539;-66
2023/09/03 11:19:00;;;;;;;2.23;1.57;;;;;;;25.04;46.22;97148.56;4961831;28;20424;-67
2023/09/03 11:21:27;;;;;;;2.20;1.60;;;;;;;25.07;46.33;97146.47;4966075;28;20423;-67
2023/09/03 11:24:03;;;;;;;2.00;1.63;;;;;;;25.23;46.59;97147.75;4958720;28;21323;-67
2023/09/03 11:26:30;;;;;;;9.07;2.13;;;;;;;25.37;46.03;97133.94;4964653;28;20447;-68
2023/09/03 11:28:56;;;;;;;128.93;14.40;;;;;;;25.30;46.28;97140.84;4956338;28;20500;-68
2023/09/03 11:31:26;;;;;;;5.63;2.60;;;;;;;25.00;46.89;97149.84;4965080;28;21088;-68
2023/09/03 11:33:52;;;;;;;2.97;2.20;;;;;;;25.19;46.67;97144.53;4952758;28;20545;-68